Latest Coastal Weather Observations for Bowen Airport AWS

IDQ60701

Issued at 1:12 am EST Thursday 11 August 2022 (issued every 10 minutes, with the page automatically refreshed every 10 minutes)

About coastal observations | Map of coastal stations | Coastal observations for QLD | Marine services | Other Formats
Station Details ID: 033327 Name: BOWEN AIRPORT AWS Lat: -20.02 Lon: 148.21 Height: 5.9 m
Data from the previous 72 hours. | See also: Recent months at Bowen Airport AWS
Date/Time
EST
Wind Sea
Height
m
Swell Vis
km
Cloud Weather Temp
°C
Press
MSL
hPa
Rain since
9am
mm
Dir  Spd
kts
Gust
kts
Height
m
Period
s
Dir
11/01:00am SSE 5 7 - - - - - - - 15.6 1020.2 0.0
11/12:30am SSE 6 8 - - - - - - - 15.8 1020.4 0.0
11/12:00am SSE 7 8 - - - - - - - 16.0 1020.6 0.0
 
Date/Time
EST
Wind Sea
Height
m
Swell Vis
km
Cloud Weather Temp
°C
Press
MSL
hPa
Rain since
9am
mm
Dir  Spd
kts
Gust
kts
Height
m
Period
s
Dir
10/11:30pm SSE 6 8 - - - - - - - 16.1 1020.7 0.0
10/11:00pm SSE 6 8 - - - - - - - 16.1 1021.0 0.0
10/10:30pm SSE 6 8 - - - - - - - 16.0 1021.1 0.0
10/10:00pm SSE 5 6 - - - - - - - 16.3 1021.2 0.0
10/09:30pm SSE 7 8 - - - - - - - 16.8 1021.3 0.0
10/09:00pm SSE 6 8 - - - - - - - 16.9 1021.4 0.0
10/08:30pm SSE 8 10 - - - - - - - 17.1 1021.3 0.0
10/08:00pm SSE 7 9 - - - - - - - 17.3 1021.2 0.0
10/07:30pm SSE 8 10 - - - - - - - 17.9 1020.9 0.0
10/07:00pm SSE 9 11 - - - - - - - 18.5 1020.5 0.0
10/06:30pm SSE 10 13 - - - - - - - 19.0 1020.0 0.0
10/06:00pm ESE 13 19 - - - - - - - 20.2 1019.6 0.0
10/05:30pm ESE 14 18 - - - - - - - 20.7 1019.2 0.0
10/05:00pm ESE 14 18 - - - - - - - 21.3 1018.7 0.0
10/04:30pm ESE 15 19 - - - - - - - 21.7 1018.4 0.0
10/04:00pm ESE 13 18 - - - - - - - 22.5 1018.3 0.0
10/03:30pm E 13 17 - - - - - - - 23.2 1018.2 0.0
10/03:00pm E 14 18 - - - - - - - 23.1 1018.4 0.0
10/02:30pm E 12 15 - - - - - - - 23.9 1018.6 0.0
10/02:00pm E 12 15 - - - - - - - 23.3 1019.0 0.0
10/01:30pm E 12 15 - - - - - - - 23.4 1019.4 0.0
10/01:00pm SE 9 11 - - - - - - - 22.5 1019.7 0.0
10/12:30pm ESE 9 12 - - - - - - - 23.3 1020.1 0.0
10/12:00pm ESE 10 13 - - - - - - - 23.1 1020.4 0.0
10/11:30am SE 11 15 - - - - - - - 22.5 1020.8 0.0
10/11:00am SE 12 15 - - - - - - - 22.3 1021.0 0.0
10/10:30am SE 13 17 - - - - - - - 21.5 1021.3 0.0
10/10:00am SE 14 18 - - - - - - - 20.7 1021.4 0.0
10/09:30am SE 14 17 - - - - - - - 20.6 1021.4 0.0
10/09:00am SE 12 16 - - - - - - - 19.6 1021.2 0.0
10/08:30am SE 10 14 - - - - - - - 18.1 1021.2 0.0
10/08:00am SSE 8 10 - - - - - - - 17.1 1021.2 0.0
10/07:30am SSE 8 11 - - - - - - - 15.9 1020.9 0.0
10/07:00am S 6 8 - - - - - - - 14.8 1020.6 0.0
10/06:30am SSE 6 8 - - - - - - - 13.9 1020.3 0.0
10/06:00am SSE 5 7 - - - - - - - 10.9 1019.9 0.0
10/05:30am SW 6 7 - - - - - - - 10.2 1019.5 0.0
10/05:00am SW 6 6 - - - - - - - 10.2 1019.2 0.0
10/04:30am SSW 3 5 - - - - - - - 10.3 1018.9 0.0
10/04:00am S 5 8 - - - - - - - 13.9 1018.8 0.0
10/03:30am SSW 4 7 - - - - - - - 12.2 1018.9 0.0
10/03:00am SW 4 5 - - - - - - - 10.5 1019.1 0.0
10/02:30am SW 4 5 - - - - - - - 10.7 1019.2 0.0
10/02:00am SSW 4 5 - - - - - - - 10.8 1019.2 0.0
10/01:30am S 3 4 - - - - - - - 11.7 1019.6 0.0
10/01:00am SSE 2 2 - - - - - - - 12.1 1019.7 0.0
10/12:30am SSE 2 3 - - - - - - - 11.9 1019.7 0.0
10/12:00am SSE 2 3 - - - - - - - 12.8 1019.9 0.0
 
Date/Time
EST
Wind Sea
Height
m
Swell Vis
km
Cloud Weather Temp
°C
Press
MSL
hPa
Rain since
9am
mm
Dir  Spd
kts
Gust
kts
Height
m
Period
s
Dir
09/11:30pm SSE 3 4 - - - - - - - 13.3 1020.1 0.0
09/11:00pm SSE 7 8 - - - - - - - 14.9 1020.3 0.0
09/10:30pm SSE 6 9 - - - - - - - 15.4 1020.1 0.0
09/10:00pm SE 6 8 - - - - - - - 16.0 1020.0 0.0
09/09:30pm SSE 6 7 - - - - - - - 15.4 1019.9 0.0
09/09:00pm SSE 7 10 - - - - - - - 16.2 1019.9 0.0
09/08:30pm SSE 6 9 - - - - - - - 16.6 1019.7 0.0
09/08:00pm SE 10 14 - - - - - - - 18.5 1019.2 0.0
09/07:30pm ESE 12 16 - - - - - - - 19.1 1018.7 0.0
09/07:00pm ESE 12 16 - - - - - - - 19.2 1018.2 0.0
09/06:30pm ESE 12 17 - - - - - - - 19.4 1017.8 0.0
09/06:00pm E 12 16 - - - - - - - 19.5 1017.3 0.0
09/05:30pm E 12 17 - - - - - - - 20.0 1016.8 0.0
09/05:00pm E 12 16 - - - - - - - 20.8 1016.4 0.0
09/04:30pm E 12 15 - - - - - - - 21.6 1016.2 0.0
09/04:00pm E 12 15 - - - - - - - 22.0 1016.0 0.0
09/03:30pm E 12 16 - - - - - - - 22.3 1015.9 0.0
09/03:00pm E 12 15 - - - - - - - 22.3 1016.1 0.0
09/02:30pm E 10 13 - - - - - - - 23.1 1016.4 0.0
09/02:00pm E 9 13 - - - - - - - 22.6 1016.7 0.0
09/01:30pm E 10 13 - - - - - - - 23.6 1017.1 0.0
09/01:00pm E 9 12 - - - - - - - 22.7 1017.6 0.0
09/12:30pm E 10 14 - - - - - - - 22.8 1017.9 0.0
09/12:00pm ESE 10 13 - - - - - - - 22.4 1018.7 0.0
09/11:30am SE 11 15 - - - - - - - 21.7 1019.1 0.0
09/11:00am SE 12 16 - - - - - - - 22.1 1019.5 0.0
09/10:30am SE 13 17 - - - - - - - 21.6 1019.9 0.0
09/10:00am SE 13 17 - - - - - - - 20.6 1020.1 0.0
09/09:30am SE 13 16 - - - - - - - 19.9 1020.0 0.0
09/09:00am SE 11 15 - - - - - - - 19.4 1020.0 0.0
09/08:30am SSE 10 13 - - - - - - - 18.5 1019.9 0.0
09/08:00am SSE 10 13 - - - - - - - 17.1 1019.7 0.0
09/07:30am SSE 8 10 - - - - - - - 16.2 1019.5 0.0
09/07:00am SSE 8 10 - - - - - - - 15.2 1019.2 0.0
09/06:30am SSE 7 9 - - - - - - - 14.2 1018.9 0.0
09/06:00am SSE 7 9 - - - - - - - 14.5 1018.8 0.0
09/05:30am SSE 8 10 - - - - - - - 14.8 1018.7 0.0
09/05:00am SSE 7 9 - - - - - - - 15.0 1018.4 0.0
09/04:30am SSE 7 9 - - - - - - - 15.0 1018.2 0.0
09/04:00am SSE 6 8 - - - - - - - 14.5 1018.0 0.0
09/03:30am SSE 7 8 - - - - - - - 14.8 1017.9 0.0
09/03:00am SSE 7 8 - - - - - - - 15.1 1018.2 0.0
09/02:30am SSE 7 10 - - - - - - - 15.5 1018.4 0.0
09/02:00am SSE 9 10 - - - - - - - 15.9 1018.4 0.0
09/01:30am SSE 9 11 - - - - - - - 16.1 1018.7 0.0
09/01:00am SSE 9 11 - - - - - - - 16.2 1018.9 0.0
09/12:30am SSE 7 8 - - - - - - - 15.7 1019.0 0.0
09/12:00am SSE 6 7 - - - - - - - 15.4 1019.0 0.0
 
Date/Time
EST
Wind Sea
Height
m
Swell Vis
km
Cloud Weather Temp
°C
Press
MSL
hPa
Rain since
9am
mm
Dir  Spd
kts
Gust
kts
Height
m
Period
s
Dir
08/11:30pm SSE 6 8 - - - - - - - 15.7 1018.9 0.0
08/11:00pm SSE 6 8 - - - - - - - 15.7 1018.9 0.0
08/10:30pm SSE 7 8 - - - - - - - 16.3 1019.0 0.0
08/10:00pm SSE 8 10 - - - - - - - 16.8 1019.0 0.0
08/09:30pm SSE 7 9 - - - - - - - 16.8 1018.7 0.0
08/09:00pm SSE 6 10 - - - - - - - 17.4 1018.6 0.0
08/08:30pm SE 10 12 - - - - - - - 18.3 1018.3 0.0
08/08:00pm SE 10 13 - - - - - - - 18.6 1018.0 0.0
08/07:30pm SE 10 13 - - - - - - - 19.0 1017.5 0.0
08/07:00pm ESE 12 16 - - - - - - - 19.9 1017.2 0.0
08/06:30pm ESE 12 15 - - - - - - - 20.2 1016.8 0.0
08/06:00pm E 15 19 - - - - - - - 20.4 1016.4 0.0
08/05:30pm E 15 18 - - - - - - - 20.9 1016.0 0.0
08/05:00pm E 13 19 - - - - - - - 21.6 1015.7 0.0
08/04:30pm E 15 19 - - - - - - - 22.2 1015.4 0.0
08/04:00pm E 15 19 - - - - - - - 22.9 1015.0 0.0
08/03:30pm E 14 18 - - - - - - - 23.1 1014.9 0.0
08/03:00pm E 13 17 - - - - - - - 23.9 1014.9 0.0
08/02:30pm ESE 12 15 - - - - - - - 24.6 1015.1 0.0
08/02:00pm ESE 13 16 - - - - - - - 24.9 1015.5 0.0
08/01:30pm ESE 13 16 - - - - - - - 24.6 1015.9 0.0
08/01:00pm ESE 14 18 - - - - - - - 24.7 1016.3 0.0
08/12:30pm ESE 13 15 - - - - - - - 24.9 1016.8 0.0
08/12:00pm SE 14 18 - - - - - - - 24.7 1017.1 0.0
08/11:30am SE 14 17 - - - - - - - 24.1 1017.5 0.0
08/11:00am SE 14 18 - - - - - - - 23.4 1017.8 0.0
08/10:30am SE 14 18 - - - - - - - 23.4 1018.3 0.0
08/10:00am SE 14 17 - - - - - - - 22.6 1018.7 0.0
08/09:30am SE 13 15 - - - - - - - 22.1 1018.8 0.0
08/09:00am SE 12 16 - - - - - - - 21.3 1018.7 0.0
08/08:30am SE 12 15 - - - - - - - 20.8 1018.5 0.0
08/08:00am SE 12 15 - - - - - - - 20.1 1018.1 0.0
08/07:30am SE 11 14 - - - - - - - 19.4 1017.9 0.0
08/07:00am SE 12 15 - - - - - - - 18.9 1017.5 0.0
08/06:30am SE 11 15 - - - - - - - 18.9 1017.2 0.0
08/06:00am SE 12 16 - - - - - - - 19.1 1017.0 0.0
08/05:30am SE 11 13 - - - - - - - 19.2 1016.5 0.0
08/05:00am SE 11 15 - - - - - - - 19.2 1016.2 0.0
08/04:30am SE 11 15 - - - - - - - 19.3 1015.9 0.0
08/04:00am SE 11 15 - - - - - - - 19.2 1015.8 0.0
08/03:30am SE 10 13 - - - - - - - 19.4 1015.7 0.0
08/03:00am SE 10 15 - - - - - - - 19.7 1015.8 0.0
08/02:30am SE 11 15 - - - - - - - 19.9 1015.9 0.0
08/02:00am SE 11 17 - - - - - - - 20.1 1015.9 0.0
08/01:30am SE 10 13 - - - - - - - 20.5 1016.0 0.0

Other formats

Comma delimited format used in spreadsheet applications
http://www.bom.gov.au/fwo/IDQ60701/IDQ60701.94383.axf

JavaScript Object Notation format (JSON) in row-major order
http://www.bom.gov.au/fwo/IDQ60701/IDQ60701.94383.json

Data quality

Most of these data are generated automatically and are frequently updated. Quality checks on data are not normally performed. It is possible for incorrect values to appear. Refer to information at About Latest Weather Observations and please check the disclaimer before using these data.